Time;durP1;ratioP1;P1;durP2;ratioP2;P2;SDS_P1;SDS_P2;PMS_P1;PMS_P2;Temp;Humidity;BMP_temperature;BMP_pressure;BME280_temperature;BME280_humidity;BME280_pressure;Samples;Min_cycle;Max_cycle;Signal;HPM_P1;HPM_P2
2021/06/28 00:00:48;;;;;;;4.10;3.27;;;;;;;16.31;56.80;100252.52;154136;1096;103486;-71
2021/06/28 00:03:53;;;;;;;4.63;3.30;;;;;;;16.26;57.22;100253.92;154071;1096;103222;-72
2021/06/28 00:06:56;;;;;;;3.40;3.00;;;;;;;16.26;56.96;100255.76;154090;1101;103220;-71
2021/06/28 00:09:59;;;;;;;6.05;3.50;;;;;;;16.27;57.18;100246.67;153926;1101;103119;-71
2021/06/28 00:13:02;;;;;;;4.83;3.27;;;;;;;16.50;57.28;100243.80;153934;1101;103273;-71
2021/06/28 00:16:06;;;;;;;3.60;2.98;;;;;;;16.53;56.88;100250.66;153848;1101;103108;-71
2021/06/28 00:19:09;;;;;;;3.93;3.23;;;;;;;16.45;57.03;100249.75;153885;1101;103158;-73
2021/06/28 00:22:12;;;;;;;4.03;3.00;;;;;;;16.40;57.34;100249.50;153967;1095;103087;-72
2021/06/28 00:25:18;;;;;;;3.83;3.03;;;;;;;16.44;57.12;100258.04;153982;1101;103157;-72
2021/06/28 00:28:21;;;;;;;3.10;2.80;;;;;;;16.42;56.99;100255.53;153958;1094;103288;-71
2021/06/28 00:31:24;;;;;;;4.05;3.00;;;;;;;16.39;57.33;100247.83;153991;1096;103227;-73
2021/06/28 00:34:29;;;;;;;3.60;2.90;;;;;;;16.34;57.01;100242.20;153951;1097;103110;-72
2021/06/28 00:37:32;;;;;;;3.77;2.73;;;;;;;16.29;56.97;100250.00;153952;1096;103346;-72
2021/06/28 00:40:37;;;;;;;4.30;3.10;;;;;;;16.22;57.50;100246.39;153937;1096;103205;-73
2021/06/28 00:43:40;;;;;;;3.13;2.80;;;;;;;16.15;57.13;100248.17;153856;1096;103275;-72
2021/06/28 00:46:43;;;;;;;4.70;2.93;;;;;;;16.06;57.45;100244.77;154135;1095;103225;-72
2021/06/28 00:49:46;;;;;;;3.63;2.70;;;;;;;15.99;57.63;100247.38;154058;1097;103173;-72
2021/06/28 00:52:54;;;;;;;3.60;2.97;;;;;;;15.94;57.72;100249.81;153847;1101;103592;-71
2021/06/28 00:56:09;;;;;;;3.27;2.60;;;;;;;15.86;57.48;100244.55;153957;1095;103055;-74
2021/06/28 00:59:15;;;;;;;3.10;2.80;;;;;;;15.81;57.94;100246.95;154048;1101;103340;-72
2021/06/28 01:02:18;;;;;;;3.28;2.58;;;;;;;15.75;57.52;100253.92;153843;1101;103538;-73
2021/06/28 01:05:23;;;;;;;3.00;2.80;;;;;;;15.67;57.55;100246.75;153851;1095;103150;-72
2021/06/28 01:08:26;;;;;;;2.90;2.68;;;;;;;15.59;57.82;100252.23;153962;1101;103127;-70
2021/06/28 01:11:29;;;;;;;3.08;2.60;;;;;;;15.53;58.08;100242.22;153880;1101;103151;-70
2021/06/28 01:14:33;;;;;;;2.85;2.55;;;;;;;15.48;58.27;100250.00;153877;1101;103244;-71
2021/06/28 01:17:36;;;;;;;3.50;2.50;;;;;;;15.40;57.82;100239.34;153907;1095;103224;-70
2021/06/28 01:20:40;;;;;;;3.00;2.70;;;;;;;15.34;58.29;100242.75;153991;1101;103234;-70
2021/06/28 01:23:43;;;;;;;2.90;2.60;;;;;;;15.27;57.97;100246.18;153937;1097;103975;-70
2021/06/28 01:26:46;;;;;;;3.70;2.60;;;;;;;15.19;58.18;100243.59;153943;1101;103340;-71
2021/06/28 01:29:49;;;;;;;2.90;2.60;;;;;;;15.15;58.37;100242.28;153957;1096;103131;-70
2021/06/28 01:32:52;;;;;;;3.23;2.70;;;;;;;15.10;58.36;100244.68;153908;1097;103224;-70
2021/06/28 01:35:55;;;;;;;3.40;2.63;;;;;;;15.08;58.25;100242.17;153852;1095;103219;-70
2021/06/28 01:38:58;;;;;;;2.50;2.30;;;;;;;15.03;58.37;100244.59;153822;1101;103231;-71
2021/06/28 01:42:01;;;;;;;2.23;1.87;;;;;;;15.06;58.59;100238.00;153808;1101;103224;-70
2021/06/28 01:45:07;;;;;;;2.37;2.07;;;;;;;15.08;58.44;100241.34;153880;1101;103502;-70
2021/06/28 01:48:10;;;;;;;3.08;2.25;;;;;;;15.09;58.62;100240.34;153977;1101;103221;-72
2021/06/28 01:51:13;;;;;;;2.83;2.60;;;;;;;15.11;58.45;100246.36;153752;1095;103243;-70
2021/06/28 01:54:17;;;;;;;2.48;2.28;;;;;;;15.14;58.75;100247.84;153871;1101;103134;-70
2021/06/28 01:57:20;;;;;;;2.90;2.60;;;;;;;15.11;58.51;100235.61;153794;1097;103205;-70
2021/06/28 02:00:26;;;;;;;2.80;2.50;;;;;;;15.07;58.49;100240.52;153831;1101;104937;-71
2021/06/28 02:03:29;;;;;;;2.47;2.27;;;;;;;15.03;58.53;100232.98;153872;1101;103294;-71
2021/06/28 02:06:31;;;;;;;4.77;2.70;;;;;;;14.97;58.64;100234.55;153847;1096;103567;-71
2021/06/28 02:09:36;;;;;;;3.80;2.70;;;;;;;14.94;58.74;100228.73;153907;1096;103566;-70
2021/06/28 02:12:39;;;;;;;2.70;2.50;;;;;;;14.90;58.57;100223.70;153948;1096;103191;-70
2021/06/28 02:15:42;;;;;;;2.80;2.50;;;;;;;14.86;58.74;100224.27;153928;1095;103262;-73
2021/06/28 02:18:45;;;;;;;2.93;2.50;;;;;;;14.85;58.79;100219.89;154080;1095;103202;-75
2021/06/28 02:21:49;;;;;;;2.40;2.20;;;;;;;14.81;58.81;100222.10;154059;1101;103150;-74
2021/06/28 02:24:53;;;;;;;3.95;2.78;;;;;;;14.79;58.79;100226.00;153917;1096;103168;-73
2021/06/28 02:27:56;;;;;;;3.00;2.70;;;;;;;14.78;58.95;100219.80;154045;1096;103229;-74
2021/06/28 02:31:00;;;;;;;3.10;2.37;;;;;;;14.75;58.86;100224.70;154003;1101;103196;-73
2021/06/28 02:34:04;;;;;;;2.88;2.58;;;;;;;14.72;59.09;100223.19;153981;1097;103195;-73
2021/06/28 02:37:07;;;;;;;2.98;2.68;;;;;;;14.69;59.17;100223.56;153983;1101;103224;-73
2021/06/28 02:40:13;;;;;;;2.97;2.67;;;;;;;14.70;59.00;100230.59;153983;1097;103147;-70
2021/06/28 02:43:17;;;;;;;2.97;2.67;;;;;;;14.72;58.93;100231.24;154051;1096;103147;-72
2021/06/28 02:46:21;;;;;;;3.03;2.73;;;;;;;14.72;59.25;100220.50;154021;1096;103152;-72
2021/06/28 02:49:24;;;;;;;2.53;2.33;;;;;;;14.72;59.08;100231.24;154098;1096;103106;-73
2021/06/28 02:52:27;;;;;;;4.05;2.45;;;;;;;14.75;59.40;100225.52;153945;1096;103227;-73
2021/06/28 02:55:30;;;;;;;3.70;2.73;;;;;;;14.73;58.89;100228.38;154018;1096;103224;-71
2021/06/28 02:58:33;;;;;;;2.40;2.20;;;;;;;14.75;59.22;100219.32;153939;1096;103139;-72
2021/06/28 03:01:37;;;;;;;3.93;2.10;;;;;;;14.81;59.13;100224.79;154016;1101;103224;-69
2021/06/28 03:04:40;;;;;;;2.50;2.30;;;;;;;14.90;59.21;100222.88;154107;1101;103129;-73
2021/06/28 03:07:43;;;;;;;2.77;2.40;;;;;;;14.96;59.49;100216.77;153842;1101;103190;-71
2021/06/28 03:10:45;;;;;;;3.20;2.67;;;;;;;15.01;59.62;100219.75;153776;1097;103256;-69
2021/06/28 03:13:49;;;;;;;3.47;2.73;;;;;;;15.09;59.54;100213.46;153778;1101;103198;-68
2021/06/28 03:16:52;;;;;;;2.70;2.48;;;;;;;15.19;59.33;100222.08;153878;1101;103283;-67
2021/06/28 03:19:55;;;;;;;2.93;2.63;;;;;;;15.38;59.99;100225.26;153813;1095;103209;-68
2021/06/28 03:22:58;;;;;;;3.53;2.70;;;;;;;15.62;59.27;100216.88;153864;1096;103500;-67
2021/06/28 03:26:01;;;;;;;3.00;2.57;;;;;;;15.88;59.19;100218.28;153981;1095;103138;-68
2021/06/28 03:29:03;;;;;;;2.70;2.50;;;;;;;16.13;59.38;100226.85;153837;1096;103277;-67
2021/06/28 03:32:08;;;;;;;3.87;2.80;;;;;;;16.44;59.23;100218.47;153862;1101;103703;-68
2021/06/28 03:35:13;;;;;;;3.37;2.97;;;;;;;16.74;59.06;100218.31;153859;1097;103249;-67
2021/06/28 03:38:15;;;;;;;4.43;3.00;;;;;;;16.95;58.97;100213.95;153854;1096;103149;-69
2021/06/28 03:41:19;;;;;;;3.50;2.80;;;;;;;17.17;58.54;100212.05;153792;1097;103272;-69
2021/06/28 03:44:22;;;;;;;3.73;2.30;;;;;;;17.44;58.77;100210.34;153830;1096;103220;-69
2021/06/28 03:47:25;;;;;;;4.10;2.73;;;;;;;17.73;58.86;100219.20;153798;1101;103258;-68
2021/06/28 03:50:28;;;;;;;3.03;2.17;;;;;;;17.98;58.50;100214.97;153900;1101;103224;-69
2021/06/28 03:53:30;;;;;;;2.80;2.50;;;;;;;18.29;58.47;100213.59;153840;1101;103221;-69
2021/06/28 03:56:33;;;;;;;2.93;2.40;;;;;;;18.55;58.23;100222.77;153797;1095;103227;-70
2021/06/28 03:59:36;;;;;;;4.30;2.70;;;;;;;18.76;58.34;100219.86;153833;1095;103239;-69
2021/06/28 04:02:41;;;;;;;2.70;2.50;;;;;;;19.00;58.27;100226.56;153759;1101;103218;-70
2021/06/28 04:05:44;;;;;;;2.85;2.65;;;;;;;19.26;57.98;100229.44;153855;1101;103119;-69
2021/06/28 04:08:47;;;;;;;2.53;2.33;;;;;;;19.41;57.70;100220.03;153795;1101;103187;-69
2021/06/28 04:11:50;;;;;;;2.75;2.50;;;;;;;19.57;57.94;100221.47;153777;1101;103298;-69
2021/06/28 04:14:53;;;;;;;3.27;2.53;;;;;;;19.75;57.98;100211.86;153771;1101;103128;-69
2021/06/28 04:17:56;;;;;;;3.47;2.37;;;;;;;19.94;58.01;100215.53;153811;1097;103349;-69
2021/06/28 04:20:59;;;;;;;2.43;2.20;;;;;;;20.13;57.81;100216.45;153848;1101;103521;-69
2021/06/28 04:24:03;;;;;;;2.73;2.33;;;;;;;20.33;57.91;100219.06;153759;1097;103128;-69
2021/06/28 04:27:07;;;;;;;2.90;2.60;;;;;;;20.51;58.16;100221.02;153829;1101;104291;-71
2021/06/28 04:30:13;;;;;;;4.40;2.50;;;;;;;20.64;57.89;100223.66;153881;1101;103179;-69
2021/06/28 04:33:16;;;;;;;2.68;2.48;;;;;;;20.81;57.76;100223.95;153838;1101;103400;-69
2021/06/28 04:36:19;;;;;;;3.00;2.70;;;;;;;20.97;57.79;100227.98;153820;1096;103156;-70
2021/06/28 04:39:22;;;;;;;2.60;2.40;;;;;;;21.12;57.87;100217.61;153772;1097;103220;-70
2021/06/28 04:42:25;;;;;;;3.00;2.70;;;;;;;21.31;57.80;100223.08;153801;1101;103253;-70
2021/06/28 04:45:28;;;;;;;3.00;2.70;;;;;;;21.45;57.57;100219.19;153803;1101;103131;-69
2021/06/28 04:48:32;;;;;;;2.67;2.30;;;;;;;21.63;57.21;100228.39;153809;1101;103174;-69
2021/06/28 04:51:35;;;;;;;2.70;2.50;;;;;;;21.79;56.96;100221.50;153829;1101;103241;-70
2021/06/28 04:54:37;;;;;;;2.50;2.30;;;;;;;21.95;56.73;100226.33;153844;1097;103173;-69
2021/06/28 04:57:40;;;;;;;3.30;2.70;;;;;;;22.12;56.52;100226.53;153791;1096;103173;-70
2021/06/28 05:00:43;;;;;;;2.63;2.43;;;;;;;22.26;56.34;100233.45;153835;1096;103166;-69
2021/06/28 05:03:46;;;;;;;3.30;2.70;;;;;;;22.37;55.83;100228.31;153934;1101;103275;-69
2021/06/28 05:06:50;;;;;;;3.93;2.90;;;;;;;22.45;55.40;100217.92;153942;1101;103279;-69
2021/06/28 05:09:53;;;;;;;3.50;2.80;;;;;;;22.57;55.61;100222.56;153838;1097;103144;-69
2021/06/28 05:12:56;;;;;;;2.90;2.70;;;;;;;22.65;55.47;100230.38;153850;1101;103145;-69
2021/06/28 05:15:58;;;;;;;3.67;3.10;;;;;;;22.74;55.23;100229.80;153834;1101;103233;-70
2021/06/28 05:19:02;;;;;;;2.83;2.53;;;;;;;22.81;54.98;100235.15;153808;1096;103288;-71
2021/06/28 05:22:05;;;;;;;3.87;2.50;;;;;;;22.90;54.81;100231.02;153815;1096;103224;-69
2021/06/28 05:25:11;;;;;;;4.50;2.95;;;;;;;23.00;54.67;100232.31;153874;1101;103135;-70
2021/06/28 05:28:15;;;;;;;3.30;2.70;;;;;;;22.99;54.63;100234.20;153954;1101;103222;-70
2021/06/28 05:31:18;;;;;;;4.23;2.20;;;;;;;23.14;54.17;100236.50;153965;1101;103253;-70
2021/06/28 05:34:21;;;;;;;3.93;2.90;;;;;;;23.27;54.16;100241.71;153785;1101;103223;-70
2021/06/28 05:37:24;;;;;;;4.03;2.57;;;;;;;23.37;54.00;100245.73;153814;1101;103190;-69
2021/06/28 05:40:27;;;;;;;2.93;2.60;;;;;;;23.37;53.43;100257.45;153800;1101;103196;-70
2021/06/28 05:43:30;;;;;;;5.53;3.13;;;;;;;23.26;52.80;100252.83;153833;1101;103296;-70
2021/06/28 05:46:33;;;;;;;3.80;2.83;;;;;;;23.10;52.94;100252.48;153816;1101;103203;-70
2021/06/28 05:49:37;;;;;;;4.67;2.80;;;;;;;23.10;53.59;100252.48;153835;1097;103380;-69
2021/06/28 05:52:40;;;;;;;3.80;2.75;;;;;;;23.03;53.63;100265.36;153826;1101;103216;-70
2021/06/28 05:55:43;;;;;;;3.33;2.97;;;;;;;23.08;53.41;100261.95;153778;1101;103198;-71
2021/06/28 05:58:46;;;;;;;4.10;3.20;;;;;;;22.98;52.71;100261.66;153846;1095;103547;-73
2021/06/28 06:01:49;;;;;;;3.43;2.90;;;;;;;22.83;53.16;100259.41;153828;1095;103216;-71
2021/06/28 06:04:52;;;;;;;3.20;2.80;;;;;;;22.93;53.12;100260.47;153955;1096;103387;-71
2021/06/28 06:07:55;;;;;;;4.27;2.60;;;;;;;23.11;52.89;100262.31;154032;1094;103225;-71
2021/06/28 06:10:59;;;;;;;3.77;2.73;;;;;;;23.27;52.88;100262.67;153849;1101;103224;-71
2021/06/28 06:14:03;;;;;;;4.68;2.70;;;;;;;23.40;52.66;100267.84;153872;1097;103191;-71
2021/06/28 06:17:06;;;;;;;3.65;2.50;;;;;;;23.52;52.34;100274.13;153851;1101;103199;-71
2021/06/28 06:20:12;;;;;;;3.95;2.55;;;;;;;23.65;52.31;100272.21;153801;1101;103286;-71
2021/06/28 06:23:15;;;;;;;3.73;2.50;;;;;;;23.74;52.43;100276.23;154026;1101;103250;-71
2021/06/28 06:26:19;;;;;;;3.30;3.00;;;;;;;23.86;52.44;100281.69;154022;1101;103232;-71
2021/06/28 06:29:22;;;;;;;4.65;2.80;;;;;;;23.98;51.87;100276.20;153874;1101;103173;-72
2021/06/28 06:32:25;;;;;;;3.03;2.70;;;;;;;23.91;51.26;100290.80;153837;1096;103142;-71
2021/06/28 06:35:28;;;;;;;4.87;2.67;;;;;;;23.80;50.77;100285.38;153864;1097;103209;-71
2021/06/28 06:38:31;;;;;;;4.20;2.60;;;;;;;23.74;51.59;100287.13;153949;1101;103127;-72
2021/06/28 06:41:34;;;;;;;3.10;2.80;;;;;;;23.65;50.39;100288.55;153952;1096;103224;-70
2021/06/28 06:44:37;;;;;;;3.00;2.70;;;;;;;23.56;49.81;100290.83;153838;1097;103221;-70
2021/06/28 06:47:40;;;;;;;3.20;2.53;;;;;;;23.48;51.47;100294.74;153848;1097;103246;-71
2021/06/28 06:50:43;;;;;;;3.03;2.80;;;;;;;23.36;50.33;100291.17;153772;1101;103247;-71
2021/06/28 06:53:46;;;;;;;3.20;2.90;;;;;;;23.21;50.64;100294.39;153834;1101;103221;-72
2021/06/28 06:56:49;;;;;;;3.23;2.93;;;;;;;23.12;50.49;100303.95;153791;1101;103144;-72
2021/06/28 06:59:52;;;;;;;2.95;2.70;;;;;;;23.04;50.79;100299.69;153788;1101;103174;-73
2021/06/28 07:02:55;;;;;;;3.33;2.80;;;;;;;23.05;50.28;100309.49;153970;1097;103197;-71
2021/06/28 07:05:58;;;;;;;7.23;3.23;;;;;;;23.10;50.49;100301.47;153794;1101;103291;-72
2021/06/28 07:09:01;;;;;;;3.77;3.20;;;;;;;23.09;50.90;100296.25;153818;1101;103499;-71
2021/06/28 07:12:06;;;;;;;3.95;3.35;;;;;;;23.06;50.48;100297.56;153817;1101;103250;-71
2021/06/28 07:15:13;;;;;;;3.10;2.80;;;;;;;23.07;50.56;100299.20;153829;1096;103206;-70
2021/06/28 07:18:16;;;;;;;24.83;6.07;;;;;;;23.19;50.74;100299.24;154007;1101;103221;-71
2021/06/28 07:21:19;;;;;;;73.87;11.47;;;;;;;23.33;50.79;100297.11;153775;1097;103353;-70
2021/06/28 07:24:22;;;;;;;4.87;3.60;;;;;;;23.47;51.16;100300.42;153814;1101;103151;-72
2021/06/28 07:27:25;;;;;;;6.40;3.43;;;;;;;23.59;50.65;100295.78;153809;1101;103276;-74
2021/06/28 07:30:28;;;;;;;4.85;3.55;;;;;;;23.69;51.02;100300.63;153980;1101;103183;-73
2021/06/28 07:33:33;;;;;;;4.23;3.23;;;;;;;23.70;50.71;100305.02;153999;1097;103525;-71
2021/06/28 07:36:36;;;;;;;4.03;3.63;;;;;;;23.61;49.84;100309.17;153799;1101;103234;-72
2021/06/28 07:39:39;;;;;;;4.57;4.13;;;;;;;23.57;50.29;100306.09;153844;1101;103225;-69
2021/06/28 07:42:43;;;;;;;4.60;4.20;;;;;;;23.57;50.60;100297.92;153829;1101;103176;-71
2021/06/28 07:45:47;;;;;;;4.60;4.03;;;;;;;23.53;50.23;100305.73;153870;1101;103725;-72
2021/06/28 07:48:50;;;;;;;4.75;3.60;;;;;;;23.58;50.65;100304.22;153856;1101;103233;-71
2021/06/28 07:51:55;;;;;;;3.80;3.43;;;;;;;23.62;50.06;100294.50;153833;1096;103572;-71
2021/06/28 07:55:29;;;;;;;5.00;4.23;;;;;;;23.70;49.49;100292.22;153820;1101;103155;-71
2021/06/28 07:58:32;;;;;;;4.43;3.88;;;;;;;23.86;50.04;100290.68;153893;1096;103150;-71
2021/06/28 08:01:34;;;;;;;4.30;3.43;;;;;;;23.97;50.23;100296.36;153824;1101;103228;-71
2021/06/28 08:04:38;;;;;;;17.10;4.63;;;;;;;24.01;49.63;100290.18;153818;1097;103192;-71
2021/06/28 08:07:41;;;;;;;9.80;4.33;;;;;;;24.13;49.97;100298.31;153792;1101;103317;-71
2021/06/28 08:10:44;;;;;;;3.93;3.50;;;;;;;24.23;49.39;100295.81;153852;1096;103195;-71
2021/06/28 08:13:49;;;;;;;4.07;3.60;;;;;;;24.30;49.37;100295.66;153853;1096;103216;-71
2021/06/28 08:16:53;;;;;;;3.90;3.50;;;;;;;24.42;49.54;100309.24;153819;1096;103138;-71
2021/06/28 08:19:56;;;;;;;3.50;3.20;;;;;;;24.50;49.52;100303.42;153824;1101;103187;-71
2021/06/28 08:22:59;;;;;;;4.18;3.78;;;;;;;24.65;48.75;100303.73;153799;1101;103378;-71
2021/06/28 08:26:02;;;;;;;4.65;3.20;;;;;;;24.77;49.05;100300.09;153943;1095;103144;-71
2021/06/28 08:29:06;;;;;;;3.70;3.40;;;;;;;24.85;48.79;100297.80;153893;1101;103128;-74
2021/06/28 08:32:09;;;;;;;4.55;3.18;;;;;;;24.89;48.59;100309.05;153960;1096;103135;-71
2021/06/28 08:35:12;;;;;;;3.48;3.18;;;;;;;24.92;48.11;100297.63;153847;1101;103164;-72
2021/06/28 08:38:16;;;;;;;4.57;3.57;;;;;;;24.74;46.00;100301.42;153818;1096;103271;-72
2021/06/28 08:41:19;;;;;;;3.80;3.50;;;;;;;24.54;47.68;100296.43;153817;1101;103174;-71
2021/06/28 08:44:23;;;;;;;3.80;3.10;;;;;;;24.59;46.63;100299.23;153860;1096;103126;-72
2021/06/28 08:47:28;;;;;;;3.15;2.85;;;;;;;24.50;47.93;100289.78;154075;1101;103140;-76
2021/06/28 08:50:32;;;;;;;3.30;3.00;;;;;;;24.63;46.67;100294.94;154115;1094;103216;-71
2021/06/28 08:53:35;;;;;;;3.28;2.88;;;;;;;24.72;46.33;100300.02;153823;1093;103218;-72
2021/06/28 08:56:40;;;;;;;4.23;3.35;;;;;;;24.73;47.55;100302.51;153858;1091;103217;-71
2021/06/28 08:59:43;;;;;;;4.37;3.93;;;;;;;24.47;45.94;100295.72;153800;1093;103241;-71
2021/06/28 09:02:55;;;;;;;3.83;3.30;;;;;;;24.39;47.39;100293.38;153881;1093;103252;-71
2021/06/28 09:06:01;;;;;;;3.70;2.90;;;;;;;24.52;47.03;100284.09;153999;1093;103312;-72
2021/06/28 09:09:08;;;;;;;3.10;2.80;;;;;;;24.61;44.65;100290.81;153867;1101;103219;-74
2021/06/28 09:12:15;;;;;;;4.17;2.97;;;;;;;24.62;46.75;100289.75;154135;1094;103214;-72
2021/06/28 09:15:33;;;;;;;3.10;2.63;;;;;;;24.67;46.58;100296.13;154148;1101;103196;-71
2021/06/28 09:18:36;;;;;;;3.63;2.83;;;;;;;24.71;46.25;100290.16;153944;1096;103195;-71
2021/06/28 09:21:41;;;;;;;3.47;3.17;;;;;;;24.81;43.96;100293.91;153865;1096;103115;-71
2021/06/28 09:24:50;;;;;;;3.93;3.20;;;;;;;24.63;45.74;100303.13;153848;1096;103217;-71
2021/06/28 09:27:53;;;;;;;2.80;2.60;;;;;;;24.69;46.51;100293.98;153827;1101;103106;-71
2021/06/28 09:30:56;;;;;;;2.85;2.63;;;;;;;24.73;46.05;100288.86;153918;1101;103219;-72
2021/06/28 09:34:14;;;;;;;3.13;2.80;;;;;;;24.62;46.15;100298.75;153995;1096;103094;-72
2021/06/28 09:37:19;;;;;;;3.03;2.77;;;;;;;24.65;46.24;100298.28;153982;1095;103313;-71
2021/06/28 09:40:25;;;;;;;3.03;2.60;;;;;;;24.82;46.27;100294.73;153815;1101;103201;-71
2021/06/28 09:43:31;;;;;;;2.80;2.60;;;;;;;25.06;45.55;100287.23;153908;1096;103195;-71
2021/06/28 09:46:36;;;;;;;4.20;2.35;;;;;;;25.28;45.80;100285.41;153847;1096;103123;-71
2021/06/28 09:49:42;;;;;;;2.80;2.50;;;;;;;25.47;46.00;100296.89;153845;1093;103123;-72
2021/06/28 09:52:48;;;;;;;2.60;2.40;;;;;;;25.53;44.63;100286.86;153882;1093;103307;-70
2021/06/28 09:55:51;;;;;;;2.65;2.45;;;;;;;25.47;43.01;100298.80;153991;1101;103243;-70
2021/06/28 09:58:54;;;;;;;3.08;2.53;;;;;;;25.21;42.23;100292.08;153933;1101;103140;-69
2021/06/28 10:02:19;;;;;;;3.13;2.30;;;;;;;25.24;44.90;100283.44;153848;1101;103184;-70
2021/06/28 10:05:25;;;;;;;2.68;2.20;;;;;;;25.62;44.65;100281.81;153816;1093;103115;-70
2021/06/28 10:08:33;;;;;;;2.30;2.10;;;;;;;25.94;44.82;100275.67;153797;1101;103190;-70
2021/06/28 10:11:45;;;;;;;2.55;2.20;;;;;;;26.09;44.52;100284.06;153797;1093;103220;-69
2021/06/28 10:14:48;;;;;;;2.58;2.38;;;;;;;26.24;44.71;100281.50;153838;1101;103118;-70
2021/06/28 10:17:52;;;;;;;2.50;2.30;;;;;;;26.36;43.77;100288.74;153804;1101;103227;-69
2021/06/28 10:20:55;;;;;;;2.43;2.20;;;;;;;26.41;43.99;100275.13;153774;1101;103420;-69
2021/06/28 10:23:58;;;;;;;2.50;2.30;;;;;;;26.32;42.63;100272.02;153808;1101;103147;-69
2021/06/28 10:27:01;;;;;;;2.37;2.17;;;;;;;25.97;42.01;100275.17;153879;1101;103283;-69
2021/06/28 10:30:08;;;;;;;2.60;2.30;;;;;;;25.59;43.16;100269.45;153825;1093;103151;-69
2021/06/28 10:33:14;;;;;;;2.70;2.30;;;;;;;25.39;42.29;100275.47;153840;1093;103110;-69
2021/06/28 10:36:21;;;;;;;3.63;2.43;;;;;;;25.26;43.19;100271.17;153861;1101;103288;-69
2021/06/28 10:39:30;;;;;;;2.50;2.30;;;;;;;25.20;43.65;100271.33;153870;1101;103083;-70
2021/06/28 10:42:35;;;;;;;2.45;2.25;;;;;;;25.15;44.09;100257.59;153890;1093;103307;-70
2021/06/28 10:45:40;;;;;;;2.20;2.00;;;;;;;25.32;43.62;100261.16;153971;1101;103125;-69
2021/06/28 10:48:49;;;;;;;3.43;2.33;;;;;;;25.44;43.37;100250.12;153837;1101;103290;-69
2021/06/28 10:51:52;;;;;;;2.40;2.20;;;;;;;25.46;44.05;100265.20;153849;1096;103131;-69
2021/06/28 10:54:55;;;;;;;3.70;2.20;;;;;;;25.49;44.00;100258.40;153879;1096;103176;-69
2021/06/28 10:57:58;;;;;;;2.60;2.23;;;;;;;25.43;43.54;100260.23;153819;1094;103197;-69
2021/06/28 11:01:09;;;;;;;2.40;2.20;;;;;;;25.26;43.19;100260.25;153824;1096;103119;-69
2021/06/28 11:04:14;;;;;;;3.43;2.03;;;;;;;25.25;43.46;100263.22;153862;1101;103129;-69
2021/06/28 11:07:19;;;;;;;2.43;2.23;;;;;;;25.35;44.25;100251.66;153858;1096;103470;-70
2021/06/28 11:10:38;;;;;;;2.50;2.30;;;;;;;25.46;43.64;100257.00;153833;1101;103140;-70
2021/06/28 11:13:53;;;;;;;2.50;2.30;;;;;;;25.53;43.11;100256.81;153832;1096;103298;-69
2021/06/28 11:16:57;;;;;;;2.75;2.43;;;;;;;25.46;42.40;100258.89;153890;1101;103216;-70
2021/06/28 11:20:05;;;;;;;2.50;2.20;;;;;;;25.52;43.58;100266.10;153909;1095;103195;-69
2021/06/28 11:23:16;;;;;;;2.50;2.28;;;;;;;25.64;43.31;100255.88;153945;1096;104404;-70
2021/06/28 11:26:33;;;;;;;2.07;1.87;;;;;;;25.76;43.27;100258.48;153899;1101;103169;-70
2021/06/28 11:29:49;;;;;;;2.50;2.30;;;;;;;25.83;42.81;100253.66;153825;1101;103358;-69
2021/06/28 11:33:04;;;;;;;2.60;2.20;;;;;;;25.91;43.17;100251.56;153890;1096;103135;-69
2021/06/28 11:36:40;;;;;;;2.73;2.10;;;;;;;25.88;41.91;100247.41;153707;1101;103129;-70
2021/06/28 11:39:57;;;;;;;2.37;2.10;;;;;;;25.65;41.65;100245.76;155258;1095;103126;-70
2021/06/28 11:43:04;;;;;;;4.27;2.40;;;;;;;25.55;42.13;100253.83;153894;1101;103261;-70
2021/06/28 11:46:09;;;;;;;2.48;2.20;;;;;;;25.51;43.05;100241.76;153789;1101;103190;-69
2021/06/28 11:49:13;;;;;;;2.20;2.00;;;;;;;25.59;42.06;100253.06;153896;1101;103284;-70
2021/06/28 11:52:16;;;;;;;2.20;2.00;;;;;;;25.74;42.42;100238.78;154090;1093;103262;-70
2021/06/28 11:55:19;;;;;;;2.23;1.83;;;;;;;25.86;42.48;100231.27;153940;1094;103223;-70
2021/06/28 11:58:25;;;;;;;2.33;1.90;;;;;;;25.93;42.06;100233.03;153930;1096;103136;-69
2021/06/28 12:01:30;;;;;;;2.77;2.10;;;;;;;25.83;41.96;100231.79;153809;1101;103303;-70
2021/06/28 12:04:35;;;;;;;2.60;2.20;;;;;;;25.76;41.91;100242.08;153854;1096;103133;-69
2021/06/28 12:07:40;;;;;;;2.18;2.00;;;;;;;25.84;40.79;100238.89;153893;1101;103126;-69
2021/06/28 12:10:53;;;;;;;2.50;2.20;;;;;;;25.85;41.51;100235.09;153857;1096;104304;-70
2021/06/28 12:13:56;;;;;;;2.25;2.05;;;;;;;26.03;42.22;100224.94;153869;1094;103481;-69
2021/06/28 12:17:00;;;;;;;4.27;2.13;;;;;;;26.21;42.22;100219.13;153989;1094;103263;-70
2021/06/28 12:20:07;;;;;;;2.50;2.00;;;;;;;26.29;42.06;100220.58;154003;1096;103221;-70
2021/06/28 12:23:11;;;;;;;2.20;2.00;;;;;;;26.44;42.20;100220.72;153844;1096;103057;-69
2021/06/28 12:26:15;;;;;;;2.70;1.90;;;;;;;26.58;42.05;100210.17;153929;1096;103104;-69
2021/06/28 12:29:27;;;;;;;2.00;1.80;;;;;;;26.66;40.90;100224.47;153924;1096;103166;-68
2021/06/28 12:32:32;;;;;;;2.60;2.00;;;;;;;26.69;41.27;100216.56;153970;1095;103206;-69
2021/06/28 12:35:35;;;;;;;3.58;2.08;;;;;;;26.74;40.75;100219.36;153998;1096;103151;-69
2021/06/28 12:38:38;;;;;;;2.67;1.87;;;;;;;26.72;41.62;100217.97;153804;1101;103140;-69
2021/06/28 12:41:41;;;;;;;2.18;1.98;;;;;;;26.79;40.77;100207.61;153782;1096;103099;-69
2021/06/28 12:44:45;;;;;;;1.90;1.80;;;;;;;26.82;40.90;100215.31;153935;1101;103204;-69
2021/06/28 12:47:49;;;;;;;2.97;1.77;;;;;;;26.70;39.76;100220.15;153938;1101;103254;-69
2021/06/28 12:50:55;;;;;;;1.98;1.88;;;;;;;26.31;40.54;100214.82;153935;1096;103099;-69
2021/06/28 12:53:58;;;;;;;3.07;1.77;;;;;;;26.07;40.29;100226.06;153994;1096;103057;-69
2021/06/28 12:57:01;;;;;;;4.20;1.93;;;;;;;26.09;41.49;100223.91;153922;1101;103134;-69
2021/06/28 13:00:21;;;;;;;2.17;1.97;;;;;;;26.32;40.81;100213.75;153817;1101;103123;-69
2021/06/28 13:03:29;;;;;;;2.10;1.70;;;;;;;26.56;40.35;100201.39;153826;1095;103269;-69
2021/06/28 13:06:34;;;;;;;2.10;1.80;;;;;;;26.73;40.79;100200.45;153873;1101;103101;-69
2021/06/28 13:09:37;;;;;;;3.30;1.85;;;;;;;26.83;40.57;100197.81;153887;1101;103219;-70
2021/06/28 13:12:40;;;;;;;1.93;1.73;;;;;;;26.85;38.93;100217.53;153796;1096;103233;-69
2021/06/28 13:15:51;;;;;;;2.13;2.00;;;;;;;26.46;39.74;100217.70;153786;1096;103220;-69
2021/06/28 13:19:08;;;;;;;3.67;2.00;;;;;;;26.36;40.45;100206.67;153788;1101;103184;-69
2021/06/28 13:22:11;;;;;;;2.38;2.00;;;;;;;26.45;39.92;100210.59;153877;1101;103199;-70
2021/06/28 13:25:18;;;;;;;2.20;2.00;;;;;;;26.32;40.17;100208.28;153839;1101;103121;-69
2021/06/28 13:28:21;;;;;;;2.80;2.00;;;;;;;26.09;40.05;100202.02;153835;1101;103204;-69
2021/06/28 13:31:25;;;;;;;3.05;1.95;;;;;;;26.12;40.40;100201.52;153826;1096;103220;-69
2021/06/28 13:34:41;;;;;;;2.75;1.93;;;;;;;26.23;39.80;100208.75;153894;1101;103305;-69
2021/06/28 13:37:44;;;;;;;2.10;1.90;;;;;;;26.32;39.33;100211.83;153833;1096;103230;-69
2021/06/28 13:40:57;;;;;;;2.73;1.60;;;;;;;26.35;40.52;100197.65;153792;1096;103240;-69
2021/06/28 13:44:09;;;;;;;2.37;2.00;;;;;;;26.30;39.21;100202.24;153824;1096;103224;-70
2021/06/28 13:47:13;;;;;;;2.47;1.80;;;;;;;26.27;40.55;100197.28;153825;1101;103495;-69
2021/06/28 13:50:19;;;;;;;2.80;2.13;;;;;;;26.39;39.99;100200.70;153804;1101;103307;-69
2021/06/28 13:53:25;;;;;;;5.00;3.40;;;;;;;26.47;40.40;100192.00;153955;1101;103209;-69
2021/06/28 13:56:28;;;;;;;2.40;2.20;;;;;;;26.54;40.49;100181.67;153779;1096;103237;-69
2021/06/28 13:59:31;;;;;;;2.03;1.83;;;;;;;26.60;39.43;100186.13;153824;1101;103217;-69